International Virtual Aviation Organisation

Russian Federation and Kazakhstan MCD

 

Карточка аэропорта UHMA

Внимание!
Информация на этой странице в стадии наполнения.
Если вы не увидели какой-то информации, или заметили неточность - пожалуйста сообщите нам!
Спасибо!
Команда RU-STAFF
Название аэропортаУгольный
Название аэропорта (англ.)Ugolny
Превышение194 ft. (59.1 m.)
Координаты64°44.1', 177°44.28'
Высота перехода1600m
Эшелон переходаQFE>=755mm:FL070; QFE<755=>728:FL080; QFE<728:FL090
Коды ответчика6501-6537
Зона ОрВДМагадан РПИ (UHMM)
Данные METARUHMA 091400Z 14004MPS CAVOK 11/08 Q1005 R01/////// NOSIG RMK TDZ R01/14004G06MPS END R01/13002G03MPS QFE750/1000
Проноз погоды (TAF)UHMA 091338Z 0915/1015 18003G08MPS 9999 SCT010 SCT025 TEMPO 0915/0921 13006G11MPS 5000 -SHRA BR SCT005 BKN015CB BECMG 0921/0923 28006G11MPS TEMPO 0923/1009 14003G08MPS 5000 -SHRA BR SCT007 BKN015CB BECMG 1009/1012 16003G08MPS
NOTAMshow/hide NOTAM
AWOS   TABLE

Информация о ВПП


Диспетчерские позиции

Позывной Наименование органа УВД Частота
UHMA_APPАнадырь-Подход124.0
UHMA_TWRАнадырь-Старт124.0



Спутниковое изображение